sensor_id;sensor_type;location;lat;lon;timestamp;temperature;humidity
47540;DHT22;33280;52.152;21.052;2022-11-20T00:00:18;-4.30;99.90
47540;DHT22;33280;52.152;21.052;2022-11-20T00:02:44;-4.30;99.90
47540;DHT22;33280;52.152;21.052;2022-11-20T00:05:11;-4.30;99.90
47540;DHT22;33280;52.152;21.052;2022-11-20T00:07:38;-4.30;99.90
47540;DHT22;33280;52.152;21.052;2022-11-20T00:10:05;-4.30;99.90
47540;DHT22;33280;52.152;21.052;2022-11-20T00:12:32;-4.30;99.90
47540;DHT22;33280;52.152;21.052;2022-11-20T00:14:59;-4.30;99.90
47540;DHT22;33280;52.152;21.052;2022-11-20T00:17:26;-4.40;99.90
47540;DHT22;33280;52.152;21.052;2022-11-20T00:19:53;-4.40;99.90
47540;DHT22;33280;52.152;21.052;2022-11-20T00:22:19;-4.40;99.90
47540;DHT22;33280;52.152;21.052;2022-11-20T00:24:46;-4.40;99.90
47540;DHT22;33280;52.152;21.052;2022-11-20T00:27:13;-4.30;99.90
47540;DHT22;33280;52.152;21.052;2022-11-20T00:29:40;-4.30;99.90
47540;DHT22;33280;52.152;21.052;2022-11-20T00:32:07;-4.30;99.90
47540;DHT22;33280;52.152;21.052;2022-11-20T00:34:33;-4.30;99.90
47540;DHT22;33280;52.152;21.052;2022-11-20T00:37:00;-4.40;99.90
47540;DHT22;33280;52.152;21.052;2022-11-20T00:39:27;-4.40;99.90
47540;DHT22;33280;52.152;21.052;2022-11-20T00:41:54;-4.30;99.90
47540;DHT22;33280;52.152;21.052;2022-11-20T00:44:21;-4.30;99.90
47540;DHT22;33280;52.152;21.052;2022-11-20T00:46:47;-4.20;99.90
47540;DHT22;33280;52.152;21.052;2022-11-20T00:49:14;-4.10;99.90
47540;DHT22;33280;52.152;21.052;2022-11-20T00:51:41;-4.10;99.90
47540;DHT22;33280;52.152;21.052;2022-11-20T00:54:10;-4.10;99.90
47540;DHT22;33280;52.152;21.052;2022-11-20T00:56:37;-4.10;99.90
47540;DHT22;33280;52.152;21.052;2022-11-20T00:59:04;-4.10;99.90
47540;DHT22;33280;52.152;21.052;2022-11-20T01:01:31;-4.10;99.90
47540;DHT22;33280;52.152;21.052;2022-11-20T01:03:59;-4.10;99.90
47540;DHT22;33280;52.152;21.052;2022-11-20T01:06:35;-4.00;99.90
47540;DHT22;33280;52.152;21.052;2022-11-20T01:09:11;-4.00;99.90
47540;DHT22;33280;52.152;21.052;2022-11-20T01:11:41;-4.10;99.90
47540;DHT22;33280;52.152;21.052;2022-11-20T01:14:12;-4.10;99.90
47540;DHT22;33280;52.152;21.052;2022-11-20T01:16:42;-4.10;99.90
47540;DHT22;33280;52.152;21.052;2022-11-20T01:19:12;-4.10;99.90
47540;DHT22;33280;52.152;21.052;2022-11-20T01:21:45;-4.10;99.90
47540;DHT22;33280;52.152;21.052;2022-11-20T01:24:13;-4.20;99.90
47540;DHT22;33280;52.152;21.052;2022-11-20T01:26:42;-4.10;99.90
47540;DHT22;33280;52.152;21.052;2022-11-20T01:29:19;-4.20;99.90
47540;DHT22;33280;52.152;21.052;2022-11-20T01:31:47;-4.20;99.90
47540;DHT22;33280;52.152;21.052;2022-11-20T01:34:16;-4.30;99.90
47540;DHT22;33280;52.152;21.052;2022-11-20T01:36:44;-4.20;99.90
47540;DHT22;33280;52.152;21.052;2022-11-20T01:39:17;-4.20;99.90
47540;DHT22;33280;52.152;21.052;2022-11-20T01:41:45;-4.20;99.90
47540;DHT22;33280;52.152;21.052;2022-11-20T01:44:55;-4.20;99.90
47540;DHT22;33280;52.152;21.052;2022-11-20T01:52:50;-4.20;99.90
47540;DHT22;33280;52.152;21.052;2022-11-20T01:55:23;-4.20;99.90
47540;DHT22;33280;52.152;21.052;2022-11-20T01:57:52;-4.20;99.90
47540;DHT22;33280;52.152;21.052;2022-11-20T02:00:20;-4.20;99.90
47540;DHT22;33280;52.152;21.052;2022-11-20T02:02:51;-4.10;99.90
47540;DHT22;33280;52.152;21.052;2022-11-20T02:05:23;-4.10;99.90
47540;DHT22;33280;52.152;21.052;2022-11-20T02:07:52;-4.10;99.90
47540;DHT22;33280;52.152;21.052;2022-11-20T02:10:20;-4.00;99.90
47540;DHT22;33280;52.152;21.052;2022-11-20T02:12:47;-4.00;99.90
47540;DHT22;33280;52.152;21.052;2022-11-20T02:15:33;-4.00;99.90
47540;DHT22;33280;52.152;21.052;2022-11-20T02:18:01;-3.90;99.90
47540;DHT22;33280;52.152;21.052;2022-11-20T02:20:27;-3.90;99.90
47540;DHT22;33280;52.152;21.052;2022-11-20T02:25:34;-3.80;99.90
47540;DHT22;33280;52.152;21.052;2022-11-20T02:28:02;-3.90;99.90
47540;DHT22;33280;52.152;21.052;2022-11-20T02:30:29;-3.80;99.90
47540;DHT22;33280;52.152;21.052;2022-11-20T02:32:57;-3.80;99.90
47540;DHT22;33280;52.152;21.052;2022-11-20T02:37:55;-3.70;99.90
47540;DHT22;33280;52.152;21.052;2022-11-20T02:40:22;-3.60;99.90
47540;DHT22;33280;52.152;21.052;2022-11-20T02:42:53;-3.60;99.90
47540;DHT22;33280;52.152;21.052;2022-11-20T02:45:21;-3.60;99.90
47540;DHT22;33280;52.152;21.052;2022-11-20T02:47:49;-3.70;99.90
47540;DHT22;33280;52.152;21.052;2022-11-20T02:50:17;-3.70;99.90
47540;DHT22;33280;52.152;21.052;2022-11-20T02:52:43;-3.70;99.90
47540;DHT22;33280;52.152;21.052;2022-11-20T02:55:10;-3.60;99.90
47540;DHT22;33280;52.152;21.052;2022-11-20T02:57:37;-3.50;99.90
47540;DHT22;33280;52.152;21.052;2022-11-20T03:00:05;-3.50;99.90
47540;DHT22;33280;52.152;21.052;2022-11-20T03:02:33;-3.50;99.90
47540;DHT22;33280;52.152;21.052;2022-11-20T03:05:00;-3.60;99.90
47540;DHT22;33280;52.152;21.052;2022-11-20T03:07:27;-3.70;99.90
47540;DHT22;33280;52.152;21.052;2022-11-20T03:09:54;-3.70;99.90
47540;DHT22;33280;52.152;21.052;2022-11-20T03:12:21;-3.60;99.90
47540;DHT22;33280;52.152;21.052;2022-11-20T03:14:48;-3.60;99.90
47540;DHT22;33280;52.152;21.052;2022-11-20T03:17:19;-3.60;99.90
47540;DHT22;33280;52.152;21.052;2022-11-20T03:19:46;-3.60;99.90
47540;DHT22;33280;52.152;21.052;2022-11-20T03:22:12;-3.70;99.90
47540;DHT22;33280;52.152;21.052;2022-11-20T03:24:39;-3.80;99.90
47540;DHT22;33280;52.152;21.052;2022-11-20T03:27:06;-3.90;99.90
47540;DHT22;33280;52.152;21.052;2022-11-20T03:29:35;-3.90;99.90
47540;DHT22;33280;52.152;21.052;2022-11-20T03:32:01;-3.80;99.90
47540;DHT22;33280;52.152;21.052;2022-11-20T03:34:28;-3.90;99.90
47540;DHT22;33280;52.152;21.052;2022-11-20T03:36:55;-3.90;99.90
47540;DHT22;33280;52.152;21.052;2022-11-20T03:39:22;-3.90;99.90
47540;DHT22;33280;52.152;21.052;2022-11-20T03:41:49;-3.90;99.90
47540;DHT22;33280;52.152;21.052;2022-11-20T03:44:16;-3.80;99.90
47540;DHT22;33280;52.152;21.052;2022-11-20T03:46:43;-3.80;99.90
47540;DHT22;33280;52.152;21.052;2022-11-20T03:49:10;-3.80;99.90
47540;DHT22;33280;52.152;21.052;2022-11-20T03:51:37;-3.80;99.90
47540;DHT22;33280;52.152;21.052;2022-11-20T03:54:06;-3.80;99.90
47540;DHT22;33280;52.152;21.052;2022-11-20T03:56:37;-3.90;99.90
47540;DHT22;33280;52.152;21.052;2022-11-20T03:59:04;-3.80;99.90
47540;DHT22;33280;52.152;21.052;2022-11-20T04:01:34;-3.90;99.90
47540;DHT22;33280;52.152;21.052;2022-11-20T04:04:01;-4.10;99.90
47540;DHT22;33280;52.152;21.052;2022-11-20T04:06:30;-4.10;99.90
47540;DHT22;33280;52.152;21.052;2022-11-20T04:08:58;-4.10;99.90
47540;DHT22;33280;52.152;21.052;2022-11-20T04:11:30;-4.20;99.90
47540;DHT22;33280;52.152;21.052;2022-11-20T04:13:59;-4.30;99.90
47540;DHT22;33280;52.152;21.052;2022-11-20T04:16:30;-4.40;99.90
47540;DHT22;33280;52.152;21.052;2022-11-20T04:18:58;-4.40;99.90
47540;DHT22;33280;52.152;21.052;2022-11-20T04:21:26;-4.40;99.90
47540;DHT22;33280;52.152;21.052;2022-11-20T04:23:53;-4.50;99.90
47540;DHT22;33280;52.152;21.052;2022-11-20T04:26:30;-4.60;99.90
47540;DHT22;33280;52.152;21.052;2022-11-20T04:28:58;-4.60;99.90
47540;DHT22;33280;52.152;21.052;2022-11-20T04:31:28;-4.60;99.90
47540;DHT22;33280;52.152;21.052;2022-11-20T04:33:55;-4.70;99.90
47540;DHT22;33280;52.152;21.052;2022-11-20T04:36:24;-4.60;99.90
47540;DHT22;33280;52.152;21.052;2022-11-20T04:38:52;-4.70;99.90
47540;DHT22;33280;52.152;21.052;2022-11-20T04:41:31;-4.60;99.90
47540;DHT22;33280;52.152;21.052;2022-11-20T04:43:59;-4.60;99.90
47540;DHT22;33280;52.152;21.052;2022-11-20T04:46:32;-4.70;99.90
47540;DHT22;33280;52.152;21.052;2022-11-20T04:49:00;-4.70;99.90
47540;DHT22;33280;52.152;21.052;2022-11-20T04:51:27;-4.70;99.90
47540;DHT22;33280;52.152;21.052;2022-11-20T04:53:54;-4.70;99.90
47540;DHT22;33280;52.152;21.052;2022-11-20T04:56:21;-4.70;99.90
47540;DHT22;33280;52.152;21.052;2022-11-20T04:58:48;-4.70;99.90
47540;DHT22;33280;52.152;21.052;2022-11-20T05:01:18;-4.70;99.90
47540;DHT22;33280;52.152;21.052;2022-11-20T05:03:45;-4.70;99.90
47540;DHT22;33280;52.152;21.052;2022-11-20T05:06:14;-4.70;99.90
47540;DHT22;33280;52.152;21.052;2022-11-20T05:08:42;-4.80;99.90
47540;DHT22;33280;52.152;21.052;2022-11-20T05:11:14;-4.70;99.90
47540;DHT22;33280;52.152;21.052;2022-11-20T05:13:42;-4.70;99.90
47540;DHT22;33280;52.152;21.052;2022-11-20T05:16:12;-4.70;99.90
47540;DHT22;33280;52.152;21.052;2022-11-20T05:18:41;-4.80;99.90
47540;DHT22;33280;52.152;21.052;2022-11-20T05:21:09;-4.70;99.90
47540;DHT22;33280;52.152;21.052;2022-11-20T05:23:36;-4.70;99.90
47540;DHT22;33280;52.152;21.052;2022-11-20T05:26:04;-4.60;99.90
47540;DHT22;33280;52.152;21.052;2022-11-20T05:28:32;-4.60;99.90
47540;DHT22;33280;52.152;21.052;2022-11-20T05:31:07;-4.60;99.90
47540;DHT22;33280;52.152;21.052;2022-11-20T05:33:35;-4.60;99.90
47540;DHT22;33280;52.152;21.052;2022-11-20T05:36:03;-4.60;99.90
47540;DHT22;33280;52.152;21.052;2022-11-20T05:38:30;-4.70;99.90
47540;DHT22;33280;52.152;21.052;2022-11-20T05:41:24;-4.70;99.90
47540;DHT22;33280;52.152;21.052;2022-11-20T05:43:51;-4.80;99.90
47540;DHT22;33280;52.152;21.052;2022-11-20T05:46:20;-4.70;99.90
47540;DHT22;33280;52.152;21.052;2022-11-20T05:48:55;-4.70;99.90
47540;DHT22;33280;52.152;21.052;2022-11-20T05:51:22;-4.80;99.90
47540;DHT22;33280;52.152;21.052;2022-11-20T05:53:49;-4.80;99.90
47540;DHT22;33280;52.152;21.052;2022-11-20T05:56:18;-4.80;99.90
47540;DHT22;33280;52.152;21.052;2022-11-20T05:58:46;-4.80;99.90
47540;DHT22;33280;52.152;21.052;2022-11-20T06:01:22;-4.70;99.90
47540;DHT22;33280;52.152;21.052;2022-11-20T06:03:49;-4.70;99.90
47540;DHT22;33280;52.152;21.052;2022-11-20T06:06:18;-4.60;99.90
47540;DHT22;33280;52.152;21.052;2022-11-20T06:08:46;-4.70;99.90
47540;DHT22;33280;52.152;21.052;2022-11-20T06:11:15;-4.70;99.90
47540;DHT22;33280;52.152;21.052;2022-11-20T06:13:42;-4.70;99.90
47540;DHT22;33280;52.152;21.052;2022-11-20T06:16:10;-4.80;99.90
47540;DHT22;33280;52.152;21.052;2022-11-20T06:18:37;-4.70;99.90
47540;DHT22;33280;52.152;21.052;2022-11-20T06:21:10;-4.70;99.90
47540;DHT22;33280;52.152;21.052;2022-11-20T06:23:37;-4.70;99.90
47540;DHT22;33280;52.152;21.052;2022-11-20T06:26:06;-4.70;99.90
47540;DHT22;33280;52.152;21.052;2022-11-20T06:28:34;-4.90;99.90
47540;DHT22;33280;52.152;21.052;2022-11-20T06:31:01;-4.90;99.90
47540;DHT22;33280;52.152;21.052;2022-11-20T06:33:28;-4.90;99.90
47540;DHT22;33280;52.152;21.052;2022-11-20T06:35:59;-5.00;99.90
47540;DHT22;33280;52.152;21.052;2022-11-20T06:38:34;-5.00;99.90
47540;DHT22;33280;52.152;21.052;2022-11-20T06:41:03;-4.80;99.90
47540;DHT22;33280;52.152;21.052;2022-11-20T06:43:30;-4.90;99.90
47540;DHT22;33280;52.152;21.052;2022-11-20T06:45:58;-4.80;99.90
47540;DHT22;33280;52.152;21.052;2022-11-20T06:48:27;-4.70;99.90
47540;DHT22;33280;52.152;21.052;2022-11-20T06:50:54;-4.60;99.90
47540;DHT22;33280;52.152;21.052;2022-11-20T06:53:22;-4.70;99.90
47540;DHT22;33280;52.152;21.052;2022-11-20T06:55:49;-4.80;99.90
47540;DHT22;33280;52.152;21.052;2022-11-20T06:58:17;-4.80;99.90
47540;DHT22;33280;52.152;21.052;2022-11-20T07:00:44;-4.80;99.90
47540;DHT22;33280;52.152;21.052;2022-11-20T07:03:12;-4.80;99.90
47540;DHT22;33280;52.152;21.052;2022-11-20T07:05:39;-4.70;99.90
47540;DHT22;33280;52.152;21.052;2022-11-20T07:08:06;-4.70;99.90
47540;DHT22;33280;52.152;21.052;2022-11-20T07:10:34;-4.70;99.90
47540;DHT22;33280;52.152;21.052;2022-11-20T07:13:01;-4.70;99.90
47540;DHT22;33280;52.152;21.052;2022-11-20T07:15:28;-4.70;99.90
47540;DHT22;33280;52.152;21.052;2022-11-20T07:17:55;-4.60;99.90
47540;DHT22;33280;52.152;21.052;2022-11-20T07:20:24;-4.60;99.90
47540;DHT22;33280;52.152;21.052;2022-11-20T07:22:55;-4.30;99.90
47540;DHT22;33280;52.152;21.052;2022-11-20T07:25:26;-4.00;99.90
47540;DHT22;33280;52.152;21.052;2022-11-20T07:28:00;-3.70;99.90
47540;DHT22;33280;52.152;21.052;2022-11-20T07:30:28;-3.40;99.90
47540;DHT22;33280;52.152;21.052;2022-11-20T07:32:55;-3.20;99.90
47540;DHT22;33280;52.152;21.052;2022-11-20T07:35:23;-3.10;99.90
47540;DHT22;33280;52.152;21.052;2022-11-20T07:37:50;-3.10;99.90
47540;DHT22;33280;52.152;21.052;2022-11-20T07:40:18;-3.10;99.90
47540;DHT22;33280;52.152;21.052;2022-11-20T07:42:50;-3.00;99.90
47540;DHT22;33280;52.152;21.052;2022-11-20T07:45:21;-2.80;99.90
47540;DHT22;33280;52.152;21.052;2022-11-20T07:47:48;-2.50;99.90
47540;DHT22;33280;52.152;21.052;2022-11-20T07:50:19;-2.40;99.90
47540;DHT22;33280;52.152;21.052;2022-11-20T07:52:46;-2.40;99.90
47540;DHT22;33280;52.152;21.052;2022-11-20T07:55:13;-2.30;99.90
47540;DHT22;33280;52.152;21.052;2022-11-20T07:57:40;-2.10;99.90
47540;DHT22;33280;52.152;21.052;2022-11-20T08:00:09;-2.10;99.90
47540;DHT22;33280;52.152;21.052;2022-11-20T08:02:37;-1.90;99.90
47540;DHT22;33280;52.152;21.052;2022-11-20T08:05:06;-1.60;99.90
47540;DHT22;33280;52.152;21.052;2022-11-20T08:07:41;-1.40;99.90
47540;DHT22;33280;52.152;21.052;2022-11-20T08:10:11;-1.30;99.90
47540;DHT22;33280;52.152;21.052;2022-11-20T08:12:49;-1.10;99.90
47540;DHT22;33280;52.152;21.052;2022-11-20T08:15:36;-1.20;99.90
47540;DHT22;33280;52.152;21.052;2022-11-20T08:18:10;-0.90;99.90
47540;DHT22;33280;52.152;21.052;2022-11-20T08:21:01;-1.00;99.90
47540;DHT22;33280;52.152;21.052;2022-11-20T08:23:28;-1.00;99.90
47540;DHT22;33280;52.152;21.052;2022-11-20T08:25:55;-0.90;99.90
47540;DHT22;33280;52.152;21.052;2022-11-20T08:28:22;-0.80;99.90
47540;DHT22;33280;52.152;21.052;2022-11-20T08:30:49;-1.00;99.90
47540;DHT22;33280;52.152;21.052;2022-11-20T08:33:17;-0.90;99.90
47540;DHT22;33280;52.152;21.052;2022-11-20T08:35:44;-0.90;99.90
47540;DHT22;33280;52.152;21.052;2022-11-20T08:38:12;-1.30;99.90
47540;DHT22;33280;52.152;21.052;2022-11-20T08:40:39;-1.30;99.90
47540;DHT22;33280;52.152;21.052;2022-11-20T08:43:05;-1.30;99.90
47540;DHT22;33280;52.152;21.052;2022-11-20T08:45:32;-1.20;99.90
47540;DHT22;33280;52.152;21.052;2022-11-20T08:48:02;-1.30;99.90
47540;DHT22;33280;52.152;21.052;2022-11-20T08:50:30;-1.40;99.90
47540;DHT22;33280;52.152;21.052;2022-11-20T08:53:04;-1.50;99.90
47540;DHT22;33280;52.152;21.052;2022-11-20T08:55:31;-1.60;99.90
47540;DHT22;33280;52.152;21.052;2022-11-20T08:57:58;-1.70;99.90
47540;DHT22;33280;52.152;21.052;2022-11-20T09:00:29;-1.80;99.90
47540;DHT22;33280;52.152;21.052;2022-11-20T09:02:56;-1.80;99.90
47540;DHT22;33280;52.152;21.052;2022-11-20T09:05:25;-1.70;99.90
47540;DHT22;33280;52.152;21.052;2022-11-20T09:07:52;-1.70;99.90
47540;DHT22;33280;52.152;21.052;2022-11-20T09:10:18;-1.90;99.90
47540;DHT22;33280;52.152;21.052;2022-11-20T09:12:51;-1.80;99.90
47540;DHT22;33280;52.152;21.052;2022-11-20T09:15:19;-2.00;99.90
47540;DHT22;33280;52.152;21.052;2022-11-20T09:17:59;-2.00;99.90
47540;DHT22;33280;52.152;21.052;2022-11-20T09:20:27;-2.00;99.90
47540;DHT22;33280;52.152;21.052;2022-11-20T09:22:56;-1.90;99.90
47540;DHT22;33280;52.152;21.052;2022-11-20T09:25:24;-1.90;99.90
47540;DHT22;33280;52.152;21.052;2022-11-20T09:27:58;-1.80;99.90
47540;DHT22;33280;52.152;21.052;2022-11-20T09:30:26;-1.60;99.90
47540;DHT22;33280;52.152;21.052;2022-11-20T09:32:53;-1.70;99.90
47540;DHT22;33280;52.152;21.052;2022-11-20T09:35:20;-1.60;99.90
47540;DHT22;33280;52.152;21.052;2022-11-20T09:37:47;-1.70;99.90
47540;DHT22;33280;52.152;21.052;2022-11-20T09:40:24;-1.80;99.90
47540;DHT22;33280;52.152;21.052;2022-11-20T09:43:03;-1.70;99.90
47540;DHT22;33280;52.152;21.052;2022-11-20T09:46:04;-1.60;99.90
47540;DHT22;33280;52.152;21.052;2022-11-20T09:48:43;-1.60;99.90
47540;DHT22;33280;52.152;21.052;2022-11-20T09:53:57;-1.50;99.90
47540;DHT22;33280;52.152;21.052;2022-11-20T09:56:28;-1.50;99.90
47540;DHT22;33280;52.152;21.052;2022-11-20T09:59:03;-1.40;99.90
47540;DHT22;33280;52.152;21.052;2022-11-20T10:01:35;-1.20;99.90
47540;DHT22;33280;52.152;21.052;2022-11-20T10:06:47;-1.10;99.90
47540;DHT22;33280;52.152;21.052;2022-11-20T10:09:38;-1.00;99.90
47540;DHT22;33280;52.152;21.052;2022-11-20T10:12:13;-1.00;99.90
47540;DHT22;33280;52.152;21.052;2022-11-20T10:25:39;-0.60;99.90
47540;DHT22;33280;52.152;21.052;2022-11-20T10:31:08;-0.40;99.90
47540;DHT22;33280;52.152;21.052;2022-11-20T10:33:40;-0.40;99.90
47540;DHT22;33280;52.152;21.052;2022-11-20T10:36:34;-0.50;99.90
47540;DHT22;33280;52.152;21.052;2022-11-20T10:39:14;-0.40;99.90
47540;DHT22;33280;52.152;21.052;2022-11-20T10:41:46;-0.30;99.90
47540;DHT22;33280;52.152;21.052;2022-11-20T10:44:19;-0.30;99.90
47540;DHT22;33280;52.152;21.052;2022-11-20T10:47:05;-0.40;99.90
47540;DHT22;33280;52.152;21.052;2022-11-20T10:49:38;-0.30;99.90
47540;DHT22;33280;52.152;21.052;2022-11-20T11:00:34;-0.20;99.90
47540;DHT22;33280;52.152;21.052;2022-11-20T11:03:02;-0.10;99.90
47540;DHT22;33280;52.152;21.052;2022-11-20T11:06:08;0.00;99.90
47540;DHT22;33280;52.152;21.052;2022-11-20T11:08:40;0.10;99.90
47540;DHT22;33280;52.152;21.052;2022-11-20T11:11:26;0.20;99.90
47540;DHT22;33280;52.152;21.052;2022-11-20T11:14:05;0.30;99.90
47540;DHT22;33280;52.152;21.052;2022-11-20T11:16:32;0.20;99.90
47540;DHT22;33280;52.152;21.052;2022-11-20T11:19:10;0.30;99.90
47540;DHT22;33280;52.152;21.052;2022-11-20T11:21:38;0.50;99.90
47540;DHT22;33280;52.152;21.052;2022-11-20T11:24:20;0.40;99.90
47540;DHT22;33280;52.152;21.052;2022-11-20T11:27:13;0.70;99.90
47540;DHT22;33280;52.152;21.052;2022-11-20T11:29:44;1.40;99.90
47540;DHT22;33280;52.152;21.052;2022-11-20T11:32:21;2.20;99.90
47540;DHT22;33280;52.152;21.052;2022-11-20T11:35:11;2.90;99.90
47540;DHT22;33280;52.152;21.052;2022-11-20T11:37:45;3.60;99.90
47540;DHT22;33280;52.152;21.052;2022-11-20T11:40:15;4.40;99.90
47540;DHT22;33280;52.152;21.052;2022-11-20T11:42:53;5.10;99.90
47540;DHT22;33280;52.152;21.052;2022-11-20T11:45:21;6.00;99.90
47540;DHT22;33280;52.152;21.052;2022-11-20T11:47:50;6.00;99.90
47540;DHT22;33280;52.152;21.052;2022-11-20T11:50:24;6.40;99.90
47540;DHT22;33280;52.152;21.052;2022-11-20T11:53:14;6.10;99.90
47540;DHT22;33280;52.152;21.052;2022-11-20T12:01:21;5.30;99.90
47540;DHT22;33280;52.152;21.052;2022-11-20T12:06:26;4.00;99.90
47540;DHT22;33280;52.152;21.052;2022-11-20T12:09:01;3.70;99.90
47540;DHT22;33280;52.152;21.052;2022-11-20T12:11:37;3.30;99.90
47540;DHT22;33280;52.152;21.052;2022-11-20T12:14:30;3.20;99.90
47540;DHT22;33280;52.152;21.052;2022-11-20T12:17:01;3.00;99.90
47540;DHT22;33280;52.152;21.052;2022-11-20T12:19:33;2.70;99.90
47540;DHT22;33280;52.152;21.052;2022-11-20T12:30:12;2.20;99.90
47540;DHT22;33280;52.152;21.052;2022-11-20T12:40:55;2.20;99.90
47540;DHT22;33280;52.152;21.052;2022-11-20T12:43:30;2.20;99.90
47540;DHT22;33280;52.152;21.052;2022-11-20T12:46:34;2.40;99.90
47540;DHT22;33280;52.152;21.052;2022-11-20T12:52:34;3.20;99.90
47540;DHT22;33280;52.152;21.052;2022-11-20T13:05:22;4.10;99.90
47540;DHT22;33280;52.152;21.052;2022-11-20T13:07:53;4.20;99.90
47540;DHT22;33280;52.152;21.052;2022-11-20T13:10:41;4.30;99.90
47540;DHT22;33280;52.152;21.052;2022-11-20T13:15:50;4.30;99.90
47540;DHT22;33280;52.152;21.052;2022-11-20T13:18:18;4.40;99.90
47540;DHT22;33280;52.152;21.052;2022-11-20T13:20:46;4.30;99.90
47540;DHT22;33280;52.152;21.052;2022-11-20T13:23:27;4.20;99.90
47540;DHT22;33280;52.152;21.052;2022-11-20T13:26:16;4.20;99.90
47540;DHT22;33280;52.152;21.052;2022-11-20T13:28:45;4.10;99.90
47540;DHT22;33280;52.152;21.052;2022-11-20T13:31:33;3.90;99.90
47540;DHT22;33280;52.152;21.052;2022-11-20T13:34:02;4.00;99.90
47540;DHT22;33280;52.152;21.052;2022-11-20T13:36:31;3.90;99.90
47540;DHT22;33280;52.152;21.052;2022-11-20T13:38:59;3.80;99.90
47540;DHT22;33280;52.152;21.052;2022-11-20T13:41:31;3.70;99.90
47540;DHT22;33280;52.152;21.052;2022-11-20T13:44:14;3.50;99.90
47540;DHT22;33280;52.152;21.052;2022-11-20T13:46:43;3.50;99.90
47540;DHT22;33280;52.152;21.052;2022-11-20T13:49:25;3.50;99.90
47540;DHT22;33280;52.152;21.052;2022-11-20T13:54:57;3.10;99.90
47540;DHT22;33280;52.152;21.052;2022-11-20T14:00:00;2.70;99.90
47540;DHT22;33280;52.152;21.052;2022-11-20T14:02:30;2.70;99.90
47540;DHT22;33280;52.152;21.052;2022-11-20T14:04:58;2.50;99.90
47540;DHT22;33280;52.152;21.052;2022-11-20T14:07:35;2.20;99.90
47540;DHT22;33280;52.152;21.052;2022-11-20T14:10:04;2.10;99.90
47540;DHT22;33280;52.152;21.052;2022-11-20T14:12:33;2.00;99.90
47540;DHT22;33280;52.152;21.052;2022-11-20T14:15:00;1.70;99.90
47540;DHT22;33280;52.152;21.052;2022-11-20T14:17:35;1.50;99.90
47540;DHT22;33280;52.152;21.052;2022-11-20T14:20:05;1.20;99.90
47540;DHT22;33280;52.152;21.052;2022-11-20T14:22:32;1.10;99.90
47540;DHT22;33280;52.152;21.052;2022-11-20T14:27:41;1.00;99.90
47540;DHT22;33280;52.152;21.052;2022-11-20T14:30:14;0.80;99.90
47540;DHT22;33280;52.152;21.052;2022-11-20T14:32:43;0.80;99.90
47540;DHT22;33280;52.152;21.052;2022-11-20T14:35:25;0.70;99.90
47540;DHT22;33280;52.152;21.052;2022-11-20T14:37:53;0.50;99.90
47540;DHT22;33280;52.152;21.052;2022-11-20T14:40:34;0.50;99.90
47540;DHT22;33280;52.152;21.052;2022-11-20T14:43:22;0.40;99.90
47540;DHT22;33280;52.152;21.052;2022-11-20T14:45:59;0.40;99.90
47540;DHT22;33280;52.152;21.052;2022-11-20T14:48:39;0.30;99.90
47540;DHT22;33280;52.152;21.052;2022-11-20T14:51:10;0.10;99.90
47540;DHT22;33280;52.152;21.052;2022-11-20T14:53:37;0.20;99.90
47540;DHT22;33280;52.152;21.052;2022-11-20T14:56:04;0.00;99.90
47540;DHT22;33280;52.152;21.052;2022-11-20T14:58:33;-0.10;99.90
47540;DHT22;33280;52.152;21.052;2022-11-20T15:01:05;-0.30;99.90
47540;DHT22;33280;52.152;21.052;2022-11-20T15:03:33;-0.20;99.90
47540;DHT22;33280;52.152;21.052;2022-11-20T15:06:01;-0.30;99.90
47540;DHT22;33280;52.152;21.052;2022-11-20T15:08:28;-0.30;99.90
47540;DHT22;33280;52.152;21.052;2022-11-20T15:10:56;-0.40;99.90
47540;DHT22;33280;52.152;21.052;2022-11-20T15:13:38;-0.40;99.90
47540;DHT22;33280;52.152;21.052;2022-11-20T15:16:18;-0.60;99.90
47540;DHT22;33280;52.152;21.052;2022-11-20T15:18:46;-0.60;99.90
47540;DHT22;33280;52.152;21.052;2022-11-20T15:21:18;-0.60;99.90
47540;DHT22;33280;52.152;21.052;2022-11-20T15:23:45;-0.70;99.90
47540;DHT22;33280;52.152;21.052;2022-11-20T15:26:15;-0.80;99.90
47540;DHT22;33280;52.152;21.052;2022-11-20T15:28:47;-0.80;99.90
47540;DHT22;33280;52.152;21.052;2022-11-20T15:31:20;-0.70;99.90
47540;DHT22;33280;52.152;21.052;2022-11-20T15:33:48;-0.80;99.90
47540;DHT22;33280;52.152;21.052;2022-11-20T15:36:16;-0.80;99.90
47540;DHT22;33280;52.152;21.052;2022-11-20T15:38:43;-0.70;99.90
47540;DHT22;33280;52.152;21.052;2022-11-20T15:41:10;-0.80;99.90
47540;DHT22;33280;52.152;21.052;2022-11-20T15:43:37;-0.70;99.90
47540;DHT22;33280;52.152;21.052;2022-11-20T15:46:15;-0.90;99.90
47540;DHT22;33280;52.152;21.052;2022-11-20T15:48:45;-0.90;99.90
47540;DHT22;33280;52.152;21.052;2022-11-20T15:53:55;-1.00;99.90
47540;DHT22;33280;52.152;21.052;2022-11-20T15:56:22;-1.10;99.90
47540;DHT22;33280;52.152;21.052;2022-11-20T15:58:49;-1.20;99.90
47540;DHT22;33280;52.152;21.052;2022-11-20T16:01:19;-1.30;99.90
47540;DHT22;33280;52.152;21.052;2022-11-20T16:03:47;-1.30;99.90
47540;DHT22;33280;52.152;21.052;2022-11-20T16:06:14;-1.30;99.90
47540;DHT22;33280;52.152;21.052;2022-11-20T16:08:43;-1.30;99.90
47540;DHT22;33280;52.152;21.052;2022-11-20T16:11:15;-1.30;99.90
47540;DHT22;33280;52.152;21.052;2022-11-20T16:13:42;-1.40;99.90
47540;DHT22;33280;52.152;21.052;2022-11-20T16:16:35;-1.40;99.90
47540;DHT22;33280;52.152;21.052;2022-11-20T16:19:02;-1.50;99.90
47540;DHT22;33280;52.152;21.052;2022-11-20T16:21:30;-1.50;99.90
47540;DHT22;33280;52.152;21.052;2022-11-20T16:24:04;-1.50;99.90
47540;DHT22;33280;52.152;21.052;2022-11-20T16:26:31;-1.60;99.90
47540;DHT22;33280;52.152;21.052;2022-11-20T16:28:59;-1.60;99.90
47540;DHT22;33280;52.152;21.052;2022-11-20T16:31:27;-1.60;99.90
47540;DHT22;33280;52.152;21.052;2022-11-20T16:33:55;-1.60;99.90
47540;DHT22;33280;52.152;21.052;2022-11-20T16:36:24;-1.60;99.90
47540;DHT22;33280;52.152;21.052;2022-11-20T16:38:56;-1.60;99.90
47540;DHT22;33280;52.152;21.052;2022-11-20T16:41:25;-1.60;99.90
47540;DHT22;33280;52.152;21.052;2022-11-20T16:43:57;-1.60;99.90
47540;DHT22;33280;52.152;21.052;2022-11-20T16:46:26;-1.60;99.90
47540;DHT22;33280;52.152;21.052;2022-11-20T16:48:58;-1.60;99.90
47540;DHT22;33280;52.152;21.052;2022-11-20T16:51:26;-1.60;99.90
47540;DHT22;33280;52.152;21.052;2022-11-20T16:53:55;-1.60;99.90
47540;DHT22;33280;52.152;21.052;2022-11-20T16:56:24;-1.50;99.90
47540;DHT22;33280;52.152;21.052;2022-11-20T16:58:54;-1.60;99.90
47540;DHT22;33280;52.152;21.052;2022-11-20T17:01:22;-1.50;99.90
47540;DHT22;33280;52.152;21.052;2022-11-20T17:03:58;-1.50;99.90
47540;DHT22;33280;52.152;21.052;2022-11-20T17:06:28;-1.50;99.90
47540;DHT22;33280;52.152;21.052;2022-11-20T17:08:56;-1.40;99.90
47540;DHT22;33280;52.152;21.052;2022-11-20T17:11:23;-1.50;99.90